sensor_id;sensor_type;location;lat;lon;timestamp;P1;durP1;ratioP1;P2;durP2;ratioP2
43620;SDS011;29213;50.770;7.298;2024-01-15T00:00:18;16.88;;;9.30;;
43620;SDS011;29213;50.770;7.298;2024-01-15T00:02:44;17.00;;;9.75;;
43620;SDS011;29213;50.770;7.298;2024-01-15T00:05:09;15.27;;;8.98;;
43620;SDS011;29213;50.770;7.298;2024-01-15T00:07:35;15.60;;;9.10;;
43620;SDS011;29213;50.770;7.298;2024-01-15T00:10:00;15.30;;;8.20;;
43620;SDS011;29213;50.770;7.298;2024-01-15T00:12:26;16.75;;;9.20;;
43620;SDS011;29213;50.770;7.298;2024-01-15T00:14:52;17.80;;;9.43;;
43620;SDS011;29213;50.770;7.298;2024-01-15T00:17:17;16.50;;;8.57;;
43620;SDS011;29213;50.770;7.298;2024-01-15T00:19:42;16.45;;;8.80;;
43620;SDS011;29213;50.770;7.298;2024-01-15T00:22:08;16.08;;;8.98;;
43620;SDS011;29213;50.770;7.298;2024-01-15T00:24:33;17.75;;;9.95;;
43620;SDS011;29213;50.770;7.298;2024-01-15T00:26:59;17.73;;;9.93;;
43620;SDS011;29213;50.770;7.298;2024-01-15T00:29:24;16.10;;;9.20;;
43620;SDS011;29213;50.770;7.298;2024-01-15T00:31:50;16.50;;;9.63;;
43620;SDS011;29213;50.770;7.298;2024-01-15T00:34:15;17.95;;;9.88;;
43620;SDS011;29213;50.770;7.298;2024-01-15T00:36:40;17.83;;;9.43;;
43620;SDS011;29213;50.770;7.298;2024-01-15T00:39:06;17.30;;;9.93;;
43620;SDS011;29213;50.770;7.298;2024-01-15T00:41:31;15.55;;;8.95;;
43620;SDS011;29213;50.770;7.298;2024-01-15T00:43:57;15.95;;;8.98;;
43620;SDS011;29213;50.770;7.298;2024-01-15T00:46:22;18.58;;;10.25;;
43620;SDS011;29213;50.770;7.298;2024-01-15T00:48:48;18.40;;;10.07;;
43620;SDS011;29213;50.770;7.298;2024-01-15T00:51:13;17.30;;;10.05;;
43620;SDS011;29213;50.770;7.298;2024-01-15T00:53:38;17.90;;;10.20;;
43620;SDS011;29213;50.770;7.298;2024-01-15T00:56:04;18.75;;;9.77;;
43620;SDS011;29213;50.770;7.298;2024-01-15T00:58:29;17.95;;;10.98;;
43620;SDS011;29213;50.770;7.298;2024-01-15T01:00:55;17.88;;;10.13;;
43620;SDS011;29213;50.770;7.298;2024-01-15T01:03:20;20.23;;;10.38;;
43620;SDS011;29213;50.770;7.298;2024-01-15T01:05:48;18.90;;;9.77;;
43620;SDS011;29213;50.770;7.298;2024-01-15T01:08:13;19.30;;;9.80;;
43620;SDS011;29213;50.770;7.298;2024-01-15T01:10:39;16.13;;;8.98;;
43620;SDS011;29213;50.770;7.298;2024-01-15T01:13:05;17.38;;;9.50;;
43620;SDS011;29213;50.770;7.298;2024-01-15T01:15:30;18.65;;;10.02;;
43620;SDS011;29213;50.770;7.298;2024-01-15T01:17:55;21.38;;;10.02;;
43620;SDS011;29213;50.770;7.298;2024-01-15T01:20:21;20.08;;;10.38;;
43620;SDS011;29213;50.770;7.298;2024-01-15T01:22:46;19.17;;;9.55;;
43620;SDS011;29213;50.770;7.298;2024-01-15T01:25:11;20.13;;;10.63;;
43620;SDS011;29213;50.770;7.298;2024-01-15T01:27:37;15.98;;;9.27;;
43620;SDS011;29213;50.770;7.298;2024-01-15T01:30:02;16.05;;;9.57;;
43620;SDS011;29213;50.770;7.298;2024-01-15T01:32:28;17.40;;;9.80;;
43620;SDS011;29213;50.770;7.298;2024-01-15T01:34:54;17.15;;;9.30;;
43620;SDS011;29213;50.770;7.298;2024-01-15T01:37:19;17.65;;;9.73;;
43620;SDS011;29213;50.770;7.298;2024-01-15T01:39:45;18.90;;;10.30;;
43620;SDS011;29213;50.770;7.298;2024-01-15T01:42:11;17.15;;;10.02;;
43620;SDS011;29213;50.770;7.298;2024-01-15T01:44:36;17.45;;;9.90;;
43620;SDS011;29213;50.770;7.298;2024-01-15T01:47:02;16.15;;;9.82;;
43620;SDS011;29213;50.770;7.298;2024-01-15T01:49:29;17.25;;;9.85;;
43620;SDS011;29213;50.770;7.298;2024-01-15T01:51:58;18.63;;;10.40;;
43620;SDS011;29213;50.770;7.298;2024-01-15T01:54:25;21.20;;;10.75;;
43620;SDS011;29213;50.770;7.298;2024-01-15T01:56:52;20.77;;;10.18;;
43620;SDS011;29213;50.770;7.298;2024-01-15T01:59:18;17.92;;;11.15;;
43620;SDS011;29213;50.770;7.298;2024-01-15T02:01:44;16.27;;;9.75;;
43620;SDS011;29213;50.770;7.298;2024-01-15T02:04:10;18.00;;;10.23;;
43620;SDS011;29213;50.770;7.298;2024-01-15T02:06:36;20.02;;;11.23;;
43620;SDS011;29213;50.770;7.298;2024-01-15T02:09:01;19.40;;;10.73;;
43620;SDS011;29213;50.770;7.298;2024-01-15T02:11:27;18.10;;;10.38;;
43620;SDS011;29213;50.770;7.298;2024-01-15T02:13:53;19.13;;;11.25;;
43620;SDS011;29213;50.770;7.298;2024-01-15T02:16:18;19.60;;;10.75;;
43620;SDS011;29213;50.770;7.298;2024-01-15T02:18:44;18.17;;;10.73;;
43620;SDS011;29213;50.770;7.298;2024-01-15T02:21:12;19.30;;;11.10;;
43620;SDS011;29213;50.770;7.298;2024-01-15T02:23:37;19.02;;;11.25;;
43620;SDS011;29213;50.770;7.298;2024-01-15T02:26:04;18.85;;;10.43;;
43620;SDS011;29213;50.770;7.298;2024-01-15T02:28:30;17.70;;;9.98;;
43620;SDS011;29213;50.770;7.298;2024-01-15T02:30:57;18.88;;;10.50;;
43620;SDS011;29213;50.770;7.298;2024-01-15T02:33:23;19.80;;;11.05;;
43620;SDS011;29213;50.770;7.298;2024-01-15T02:35:48;18.30;;;10.05;;
43620;SDS011;29213;50.770;7.298;2024-01-15T02:38:15;19.25;;;10.73;;
43620;SDS011;29213;50.770;7.298;2024-01-15T02:40:42;15.77;;;9.75;;
43620;SDS011;29213;50.770;7.298;2024-01-15T02:43:09;17.83;;;10.50;;
43620;SDS011;29213;50.770;7.298;2024-01-15T02:45:34;20.95;;;11.52;;
43620;SDS011;29213;50.770;7.298;2024-01-15T02:48:00;18.90;;;10.85;;
43620;SDS011;29213;50.770;7.298;2024-01-15T02:50:25;22.17;;;11.98;;
43620;SDS011;29213;50.770;7.298;2024-01-15T02:52:50;19.35;;;11.10;;
43620;SDS011;29213;50.770;7.298;2024-01-15T02:55:16;21.77;;;11.10;;
43620;SDS011;29213;50.770;7.298;2024-01-15T02:57:41;20.65;;;11.48;;
43620;SDS011;29213;50.770;7.298;2024-01-15T03:00:07;20.25;;;11.45;;
43620;SDS011;29213;50.770;7.298;2024-01-15T03:02:35;21.95;;;12.13;;
43620;SDS011;29213;50.770;7.298;2024-01-15T03:05:04;17.58;;;10.70;;
43620;SDS011;29213;50.770;7.298;2024-01-15T03:07:30;18.80;;;11.13;;
43620;SDS011;29213;50.770;7.298;2024-01-15T03:09:55;19.27;;;10.65;;
43620;SDS011;29213;50.770;7.298;2024-01-15T03:12:20;19.35;;;10.38;;
43620;SDS011;29213;50.770;7.298;2024-01-15T03:14:46;19.40;;;11.25;;
43620;SDS011;29213;50.770;7.298;2024-01-15T03:17:11;18.13;;;10.93;;
43620;SDS011;29213;50.770;7.298;2024-01-15T03:19:37;22.42;;;11.65;;
43620;SDS011;29213;50.770;7.298;2024-01-15T03:22:02;18.15;;;11.57;;
43620;SDS011;29213;50.770;7.298;2024-01-15T03:24:28;18.88;;;10.93;;
43620;SDS011;29213;50.770;7.298;2024-01-15T03:26:54;18.25;;;11.02;;
43620;SDS011;29213;50.770;7.298;2024-01-15T03:29:20;18.02;;;10.82;;
43620;SDS011;29213;50.770;7.298;2024-01-15T03:31:45;20.23;;;11.63;;
43620;SDS011;29213;50.770;7.298;2024-01-15T03:34:11;18.88;;;11.05;;
43620;SDS011;29213;50.770;7.298;2024-01-15T03:36:36;19.42;;;10.43;;
43620;SDS011;29213;50.770;7.298;2024-01-15T03:39:01;19.23;;;10.98;;
43620;SDS011;29213;50.770;7.298;2024-01-15T03:41:27;18.45;;;10.38;;
43620;SDS011;29213;50.770;7.298;2024-01-15T03:43:52;17.35;;;10.50;;
43620;SDS011;29213;50.770;7.298;2024-01-15T03:46:17;20.05;;;10.80;;
43620;SDS011;29213;50.770;7.298;2024-01-15T03:48:43;18.38;;;10.95;;
43620;SDS011;29213;50.770;7.298;2024-01-15T03:51:08;17.05;;;9.88;;
43620;SDS011;29213;50.770;7.298;2024-01-15T03:53:34;14.63;;;8.98;;
43620;SDS011;29213;50.770;7.298;2024-01-15T03:55:59;17.23;;;9.98;;
43620;SDS011;29213;50.770;7.298;2024-01-15T03:58:24;18.95;;;10.23;;
43620;SDS011;29213;50.770;7.298;2024-01-15T04:00:50;15.75;;;9.32;;
43620;SDS011;29213;50.770;7.298;2024-01-15T04:03:15;16.77;;;9.98;;
43620;SDS011;29213;50.770;7.298;2024-01-15T04:05:41;15.45;;;9.07;;
43620;SDS011;29213;50.770;7.298;2024-01-15T04:08:06;16.33;;;9.60;;
43620;SDS011;29213;50.770;7.298;2024-01-15T04:10:32;16.77;;;9.73;;
43620;SDS011;29213;50.770;7.298;2024-01-15T04:12:57;15.68;;;9.50;;
43620;SDS011;29213;50.770;7.298;2024-01-15T04:15:24;15.07;;;9.15;;
43620;SDS011;29213;50.770;7.298;2024-01-15T04:17:50;14.95;;;10.10;;
43620;SDS011;29213;50.770;7.298;2024-01-15T04:20:15;16.88;;;9.77;;
43620;SDS011;29213;50.770;7.298;2024-01-15T04:22:40;18.25;;;10.68;;
43620;SDS011;29213;50.770;7.298;2024-01-15T04:25:06;14.05;;;8.68;;
43620;SDS011;29213;50.770;7.298;2024-01-15T04:27:31;15.52;;;9.15;;
43620;SDS011;29213;50.770;7.298;2024-01-15T04:29:57;16.90;;;9.90;;
43620;SDS011;29213;50.770;7.298;2024-01-15T04:32:22;15.98;;;9.40;;
43620;SDS011;29213;50.770;7.298;2024-01-15T04:34:48;16.88;;;10.20;;
43620;SDS011;29213;50.770;7.298;2024-01-15T04:37:13;17.73;;;10.38;;
43620;SDS011;29213;50.770;7.298;2024-01-15T04:39:39;16.15;;;9.95;;
43620;SDS011;29213;50.770;7.298;2024-01-15T04:42:04;17.00;;;10.93;;
43620;SDS011;29213;50.770;7.298;2024-01-15T04:44:30;16.42;;;10.63;;
43620;SDS011;29213;50.770;7.298;2024-01-15T04:46:55;16.33;;;10.13;;
43620;SDS011;29213;50.770;7.298;2024-01-15T04:49:21;16.17;;;10.05;;
43620;SDS011;29213;50.770;7.298;2024-01-15T04:51:46;15.48;;;10.00;;
43620;SDS011;29213;50.770;7.298;2024-01-15T04:54:12;15.25;;;9.57;;
43620;SDS011;29213;50.770;7.298;2024-01-15T04:56:37;16.13;;;9.75;;
43620;SDS011;29213;50.770;7.298;2024-01-15T04:59:03;15.40;;;9.75;;
43620;SDS011;29213;50.770;7.298;2024-01-15T05:01:31;16.05;;;9.80;;
43620;SDS011;29213;50.770;7.298;2024-01-15T05:03:57;14.23;;;8.77;;
43620;SDS011;29213;50.770;7.298;2024-01-15T05:06:23;14.80;;;9.63;;
43620;SDS011;29213;50.770;7.298;2024-01-15T05:08:48;14.88;;;8.95;;
43620;SDS011;29213;50.770;7.298;2024-01-15T05:11:14;14.52;;;8.60;;
43620;SDS011;29213;50.770;7.298;2024-01-15T05:13:40;19.00;;;10.38;;
43620;SDS011;29213;50.770;7.298;2024-01-15T05:16:05;15.98;;;9.55;;
43620;SDS011;29213;50.770;7.298;2024-01-15T05:18:31;13.25;;;8.43;;
43620;SDS011;29213;50.770;7.298;2024-01-15T05:20:56;13.85;;;8.30;;
43620;SDS011;29213;50.770;7.298;2024-01-15T05:23:21;13.05;;;8.10;;
43620;SDS011;29213;50.770;7.298;2024-01-15T05:25:47;15.15;;;8.75;;
43620;SDS011;29213;50.770;7.298;2024-01-15T05:28:13;14.30;;;8.25;;
43620;SDS011;29213;50.770;7.298;2024-01-15T05:30:39;13.25;;;8.15;;
43620;SDS011;29213;50.770;7.298;2024-01-15T05:33:04;12.85;;;7.43;;
43620;SDS011;29213;50.770;7.298;2024-01-15T05:35:30;13.45;;;7.78;;
43620;SDS011;29213;50.770;7.298;2024-01-15T05:37:55;12.77;;;7.85;;
43620;SDS011;29213;50.770;7.298;2024-01-15T05:40:21;12.63;;;7.60;;
43620;SDS011;29213;50.770;7.298;2024-01-15T05:42:46;11.27;;;7.28;;
43620;SDS011;29213;50.770;7.298;2024-01-15T05:45:11;12.73;;;8.57;;
43620;SDS011;29213;50.770;7.298;2024-01-15T05:47:37;13.95;;;8.10;;
43620;SDS011;29213;50.770;7.298;2024-01-15T05:50:02;12.73;;;7.22;;
43620;SDS011;29213;50.770;7.298;2024-01-15T05:52:28;12.55;;;7.45;;
43620;SDS011;29213;50.770;7.298;2024-01-15T05:54:53;12.93;;;8.07;;
43620;SDS011;29213;50.770;7.298;2024-01-15T05:57:19;12.13;;;7.40;;
43620;SDS011;29213;50.770;7.298;2024-01-15T05:59:44;12.73;;;7.85;;
43620;SDS011;29213;50.770;7.298;2024-01-15T06:02:10;13.40;;;8.32;;
43620;SDS011;29213;50.770;7.298;2024-01-15T06:04:36;16.02;;;8.85;;
43620;SDS011;29213;50.770;7.298;2024-01-15T06:07:01;11.95;;;7.90;;
43620;SDS011;29213;50.770;7.298;2024-01-15T06:09:27;11.85;;;7.45;;
43620;SDS011;29213;50.770;7.298;2024-01-15T06:11:53;12.25;;;7.43;;
43620;SDS011;29213;50.770;7.298;2024-01-15T06:14:18;15.25;;;8.50;;
43620;SDS011;29213;50.770;7.298;2024-01-15T06:16:43;12.50;;;8.30;;
43620;SDS011;29213;50.770;7.298;2024-01-15T06:19:09;13.18;;;7.85;;
43620;SDS011;29213;50.770;7.298;2024-01-15T06:21:34;12.23;;;8.02;;
43620;SDS011;29213;50.770;7.298;2024-01-15T06:24:00;11.48;;;7.07;;
43620;SDS011;29213;50.770;7.298;2024-01-15T06:26:25;11.43;;;7.40;;
43620;SDS011;29213;50.770;7.298;2024-01-15T06:28:50;12.73;;;7.35;;
43620;SDS011;29213;50.770;7.298;2024-01-15T06:31:16;12.02;;;7.40;;
43620;SDS011;29213;50.770;7.298;2024-01-15T06:33:41;15.02;;;7.85;;
43620;SDS011;29213;50.770;7.298;2024-01-15T06:36:07;12.70;;;7.60;;
43620;SDS011;29213;50.770;7.298;2024-01-15T06:38:33;14.30;;;8.13;;
43620;SDS011;29213;50.770;7.298;2024-01-15T06:40:59;12.95;;;7.97;;
43620;SDS011;29213;50.770;7.298;2024-01-15T06:43:25;11.18;;;7.35;;
43620;SDS011;29213;50.770;7.298;2024-01-15T06:45:50;12.32;;;7.78;;
43620;SDS011;29213;50.770;7.298;2024-01-15T06:48:15;12.13;;;7.55;;
43620;SDS011;29213;50.770;7.298;2024-01-15T06:50:44;15.63;;;7.90;;
43620;SDS011;29213;50.770;7.298;2024-01-15T06:53:10;11.77;;;7.43;;
43620;SDS011;29213;50.770;7.298;2024-01-15T06:55:35;10.48;;;6.95;;
43620;SDS011;29213;50.770;7.298;2024-01-15T06:58:01;14.98;;;8.38;;
43620;SDS011;29213;50.770;7.298;2024-01-15T07:00:26;12.98;;;8.20;;
43620;SDS011;29213;50.770;7.298;2024-01-15T07:02:52;12.13;;;8.02;;
43620;SDS011;29213;50.770;7.298;2024-01-15T07:05:19;11.65;;;7.95;;
43620;SDS011;29213;50.770;7.298;2024-01-15T07:07:45;13.90;;;8.18;;
43620;SDS011;29213;50.770;7.298;2024-01-15T07:10:12;14.57;;;7.63;;
43620;SDS011;29213;50.770;7.298;2024-01-15T07:12:38;12.27;;;7.40;;
43620;SDS011;29213;50.770;7.298;2024-01-15T07:15:04;13.05;;;8.27;;
43620;SDS011;29213;50.770;7.298;2024-01-15T07:17:32;13.25;;;8.23;;
43620;SDS011;29213;50.770;7.298;2024-01-15T07:19:57;11.30;;;7.47;;
43620;SDS011;29213;50.770;7.298;2024-01-15T07:22:23;13.70;;;8.27;;
43620;SDS011;29213;50.770;7.298;2024-01-15T07:24:48;13.13;;;8.50;;
43620;SDS011;29213;50.770;7.298;2024-01-15T07:27:14;12.70;;;8.30;;
43620;SDS011;29213;50.770;7.298;2024-01-15T07:29:39;14.90;;;8.30;;
43620;SDS011;29213;50.770;7.298;2024-01-15T07:32:04;14.32;;;8.18;;
43620;SDS011;29213;50.770;7.298;2024-01-15T07:34:30;13.07;;;8.50;;
43620;SDS011;29213;50.770;7.298;2024-01-15T07:36:57;13.50;;;8.18;;
43620;SDS011;29213;50.770;7.298;2024-01-15T07:39:22;14.57;;;9.10;;
43620;SDS011;29213;50.770;7.298;2024-01-15T07:41:50;11.57;;;7.57;;
43620;SDS011;29213;50.770;7.298;2024-01-15T07:44:15;13.93;;;8.43;;
43620;SDS011;29213;50.770;7.298;2024-01-15T07:46:44;14.60;;;8.20;;
43620;SDS011;29213;50.770;7.298;2024-01-15T07:49:10;12.60;;;7.87;;
43620;SDS011;29213;50.770;7.298;2024-01-15T07:51:36;13.10;;;7.72;;
43620;SDS011;29213;50.770;7.298;2024-01-15T07:54:02;13.30;;;7.85;;
43620;SDS011;29213;50.770;7.298;2024-01-15T07:56:28;15.05;;;8.95;;
43620;SDS011;29213;50.770;7.298;2024-01-15T07:58:53;14.20;;;7.63;;
43620;SDS011;29213;50.770;7.298;2024-01-15T08:01:19;10.98;;;7.43;;
43620;SDS011;29213;50.770;7.298;2024-01-15T08:03:44;12.68;;;7.85;;
43620;SDS011;29213;50.770;7.298;2024-01-15T08:06:09;12.15;;;7.63;;
43620;SDS011;29213;50.770;7.298;2024-01-15T08:08:35;13.88;;;8.00;;
43620;SDS011;29213;50.770;7.298;2024-01-15T08:11:02;12.35;;;6.95;;
43620;SDS011;29213;50.770;7.298;2024-01-15T08:13:27;12.75;;;8.10;;
43620;SDS011;29213;50.770;7.298;2024-01-15T08:15:53;11.70;;;6.95;;
43620;SDS011;29213;50.770;7.298;2024-01-15T08:18:18;12.88;;;7.43;;
43620;SDS011;29213;50.770;7.298;2024-01-15T08:20:43;11.57;;;7.18;;
43620;SDS011;29213;50.770;7.298;2024-01-15T08:23:09;12.10;;;7.75;;
43620;SDS011;29213;50.770;7.298;2024-01-15T08:25:34;12.00;;;6.90;;
43620;SDS011;29213;50.770;7.298;2024-01-15T08:28:00;10.05;;;6.57;;
43620;SDS011;29213;50.770;7.298;2024-01-15T08:30:25;12.93;;;7.40;;
43620;SDS011;29213;50.770;7.298;2024-01-15T08:32:55;13.15;;;6.70;;
43620;SDS011;29213;50.770;7.298;2024-01-15T08:35:21;11.15;;;6.82;;
43620;SDS011;29213;50.770;7.298;2024-01-15T08:37:54;13.85;;;7.00;;
43620;SDS011;29213;50.770;7.298;2024-01-15T08:40:19;10.65;;;6.47;;
43620;SDS011;29213;50.770;7.298;2024-01-15T08:42:44;11.98;;;7.20;;
43620;SDS011;29213;50.770;7.298;2024-01-15T08:45:14;12.00;;;6.53;;
43620;SDS011;29213;50.770;7.298;2024-01-15T08:47:39;16.75;;;7.75;;
43620;SDS011;29213;50.770;7.298;2024-01-15T08:50:05;13.63;;;7.22;;
43620;SDS011;29213;50.770;7.298;2024-01-15T08:52:31;15.15;;;7.35;;
43620;SDS011;29213;50.770;7.298;2024-01-15T08:54:57;12.20;;;6.85;;
43620;SDS011;29213;50.770;7.298;2024-01-15T08:57:22;14.38;;;7.18;;
43620;SDS011;29213;50.770;7.298;2024-01-15T08:59:48;10.70;;;5.90;;
43620;SDS011;29213;50.770;7.298;2024-01-15T09:02:14;11.32;;;6.60;;
43620;SDS011;29213;50.770;7.298;2024-01-15T09:04:39;12.57;;;7.00;;
43620;SDS011;29213;50.770;7.298;2024-01-15T09:07:06;12.07;;;6.70;;
43620;SDS011;29213;50.770;7.298;2024-01-15T09:09:32;14.15;;;8.13;;
43620;SDS011;29213;50.770;7.298;2024-01-15T09:11:57;12.23;;;6.65;;
43620;SDS011;29213;50.770;7.298;2024-01-15T09:14:23;12.00;;;6.32;;
43620;SDS011;29213;50.770;7.298;2024-01-15T09:16:49;13.85;;;7.90;;
43620;SDS011;29213;50.770;7.298;2024-01-15T09:19:15;13.20;;;7.22;;
43620;SDS011;29213;50.770;7.298;2024-01-15T09:21:41;12.95;;;7.78;;
43620;SDS011;29213;50.770;7.298;2024-01-15T09:24:06;12.65;;;6.82;;
43620;SDS011;29213;50.770;7.298;2024-01-15T09:26:31;11.98;;;6.95;;
43620;SDS011;29213;50.770;7.298;2024-01-15T09:28:57;13.80;;;7.13;;
43620;SDS011;29213;50.770;7.298;2024-01-15T09:31:23;12.35;;;7.43;;
43620;SDS011;29213;50.770;7.298;2024-01-15T09:33:49;15.20;;;7.55;;
43620;SDS011;29213;50.770;7.298;2024-01-15T09:36:17;15.98;;;8.18;;
43620;SDS011;29213;50.770;7.298;2024-01-15T09:38:43;13.27;;;7.03;;
43620;SDS011;29213;50.770;7.298;2024-01-15T09:41:08;13.48;;;7.25;;
43620;SDS011;29213;50.770;7.298;2024-01-15T09:43:34;12.10;;;7.05;;
43620;SDS011;29213;50.770;7.298;2024-01-15T09:46:02;13.82;;;7.28;;
43620;SDS011;29213;50.770;7.298;2024-01-15T09:48:28;14.45;;;7.05;;
43620;SDS011;29213;50.770;7.298;2024-01-15T09:50:54;11.20;;;6.40;;
43620;SDS011;29213;50.770;7.298;2024-01-15T09:53:23;10.23;;;6.47;;
43620;SDS011;29213;50.770;7.298;2024-01-15T09:55:50;11.45;;;5.90;;
43620;SDS011;29213;50.770;7.298;2024-01-15T09:58:17;12.05;;;6.32;;
43620;SDS011;29213;50.770;7.298;2024-01-15T10:00:44;10.68;;;5.88;;
43620;SDS011;29213;50.770;7.298;2024-01-15T10:03:10;10.73;;;6.10;;
43620;SDS011;29213;50.770;7.298;2024-01-15T10:05:37;9.35;;;5.70;;
43620;SDS011;29213;50.770;7.298;2024-01-15T10:08:03;11.07;;;5.88;;
43620;SDS011;29213;50.770;7.298;2024-01-15T10:10:29;10.20;;;5.82;;
43620;SDS011;29213;50.770;7.298;2024-01-15T10:12:56;8.45;;;4.88;;
43620;SDS011;29213;50.770;7.298;2024-01-15T10:15:23;10.00;;;5.45;;
43620;SDS011;29213;50.770;7.298;2024-01-15T10:17:49;8.93;;;4.97;;
43620;SDS011;29213;50.770;7.298;2024-01-15T10:20:15;8.50;;;4.97;;
43620;SDS011;29213;50.770;7.298;2024-01-15T10:22:41;8.30;;;5.05;;
43620;SDS011;29213;50.770;7.298;2024-01-15T10:25:11;10.93;;;5.18;;
43620;SDS011;29213;50.770;7.298;2024-01-15T10:27:38;7.57;;;5.10;;
43620;SDS011;29213;50.770;7.298;2024-01-15T10:30:03;8.43;;;5.18;;
43620;SDS011;29213;50.770;7.298;2024-01-15T10:32:30;8.25;;;5.38;;
43620;SDS011;29213;50.770;7.298;2024-01-15T10:34:55;8.20;;;5.20;;
43620;SDS011;29213;50.770;7.298;2024-01-15T10:37:21;8.85;;;5.28;;
43620;SDS011;29213;50.770;7.298;2024-01-15T10:39:46;8.52;;;5.03;;
43620;SDS011;29213;50.770;7.298;2024-01-15T10:42:12;10.00;;;4.97;;
43620;SDS011;29213;50.770;7.298;2024-01-15T10:44:37;8.55;;;4.93;;
43620;SDS011;29213;50.770;7.298;2024-01-15T10:47:03;8.95;;;5.50;;
43620;SDS011;29213;50.770;7.298;2024-01-15T10:49:29;8.85;;;5.60;;
43620;SDS011;29213;50.770;7.298;2024-01-15T10:51:56;8.15;;;5.40;;
43620;SDS011;29213;50.770;7.298;2024-01-15T10:54:21;8.60;;;5.50;;
43620;SDS011;29213;50.770;7.298;2024-01-15T10:56:48;9.40;;;5.57;;
43620;SDS011;29213;50.770;7.298;2024-01-15T10:59:15;7.75;;;5.28;;
43620;SDS011;29213;50.770;7.298;2024-01-15T11:01:41;7.03;;;4.88;;
43620;SDS011;29213;50.770;7.298;2024-01-15T11:04:08;8.32;;;5.28;;
43620;SDS011;29213;50.770;7.298;2024-01-15T11:06:45;8.30;;;5.10;;
43620;SDS011;29213;50.770;7.298;2024-01-15T11:09:14;7.28;;;5.28;;
43620;SDS011;29213;50.770;7.298;2024-01-15T11:11:41;7.72;;;5.03;;
43620;SDS011;29213;50.770;7.298;2024-01-15T11:14:09;8.70;;;5.60;;
43620;SDS011;29213;50.770;7.298;2024-01-15T11:16:53;7.18;;;4.80;;
43620;SDS011;29213;50.770;7.298;2024-01-15T11:19:21;6.57;;;4.50;;
43620;SDS011;29213;50.770;7.298;2024-01-15T11:21:47;7.18;;;4.85;;
43620;SDS011;29213;50.770;7.298;2024-01-15T11:24:33;6.45;;;4.47;;
43620;SDS011;29213;50.770;7.298;2024-01-15T11:27:06;7.30;;;4.78;;
43620;SDS011;29213;50.770;7.298;2024-01-15T11:29:33;6.07;;;4.25;;
43620;SDS011;29213;50.770;7.298;2024-01-15T11:32:01;5.72;;;4.20;;
43620;SDS011;29213;50.770;7.298;2024-01-15T11:37:23;8.02;;;4.78;;
43620;SDS011;29213;50.770;7.298;2024-01-15T11:39:53;6.10;;;4.50;;
43620;SDS011;29213;50.770;7.298;2024-01-15T11:42:19;6.68;;;4.32;;
43620;SDS011;29213;50.770;7.298;2024-01-15T11:44:46;6.93;;;4.30;;
43620;SDS011;29213;50.770;7.298;2024-01-15T11:47:12;6.70;;;4.78;;
43620;SDS011;29213;50.770;7.298;2024-01-15T11:52:26;6.63;;;4.80;;
43620;SDS011;29213;50.770;7.298;2024-01-15T11:55:01;7.63;;;5.43;;
43620;SDS011;29213;50.770;7.298;2024-01-15T11:57:45;7.70;;;5.40;;
43620;SDS011;29213;50.770;7.298;2024-01-15T12:00:12;7.53;;;4.82;;
43620;SDS011;29213;50.770;7.298;2024-01-15T12:02:39;8.57;;;5.53;;
43620;SDS011;29213;50.770;7.298;2024-01-15T12:05:06;7.75;;;5.68;;
43620;SDS011;29213;50.770;7.298;2024-01-15T12:07:33;7.18;;;5.70;;
43620;SDS011;29213;50.770;7.298;2024-01-15T12:09:59;7.57;;;5.20;;
43620;SDS011;29213;50.770;7.298;2024-01-15T12:12:27;7.35;;;4.90;;
43620;SDS011;29213;50.770;7.298;2024-01-15T12:15:02;7.72;;;5.18;;
43620;SDS011;29213;50.770;7.298;2024-01-15T12:17:28;6.60;;;5.20;;
43620;SDS011;29213;50.770;7.298;2024-01-15T12:19:54;6.22;;;5.10;;
43620;SDS011;29213;50.770;7.298;2024-01-15T12:22:21;7.25;;;5.43;;
43620;SDS011;29213;50.770;7.298;2024-01-15T12:24:46;8.95;;;5.68;;
43620;SDS011;29213;50.770;7.298;2024-01-15T12:27:12;7.85;;;5.63;;
43620;SDS011;29213;50.770;7.298;2024-01-15T12:29:37;9.30;;;5.95;;
43620;SDS011;29213;50.770;7.298;2024-01-15T12:32:04;8.43;;;5.47;;
43620;SDS011;29213;50.770;7.298;2024-01-15T12:34:30;8.57;;;5.78;;
43620;SDS011;29213;50.770;7.298;2024-01-15T12:36:57;9.98;;;4.97;;
43620;SDS011;29213;50.770;7.298;2024-01-15T12:39:22;8.30;;;5.40;;
43620;SDS011;29213;50.770;7.298;2024-01-15T12:41:49;9.38;;;5.95;;
43620;SDS011;29213;50.770;7.298;2024-01-15T12:44:15;11.07;;;5.75;;
43620;SDS011;29213;50.770;7.298;2024-01-15T12:46:40;10.43;;;6.30;;
43620;SDS011;29213;50.770;7.298;2024-01-15T12:49:05;11.38;;;6.22;;
43620;SDS011;29213;50.770;7.298;2024-01-15T12:51:34;13.13;;;5.90;;
43620;SDS011;29213;50.770;7.298;2024-01-15T12:54:00;9.35;;;5.60;;
43620;SDS011;29213;50.770;7.298;2024-01-15T12:56:25;10.48;;;5.30;;
43620;SDS011;29213;50.770;7.298;2024-01-15T12:58:50;10.15;;;5.47;;
43620;SDS011;29213;50.770;7.298;2024-01-15T13:01:16;9.07;;;4.88;;
43620;SDS011;29213;50.770;7.298;2024-01-15T13:03:41;12.52;;;5.40;;
43620;SDS011;29213;50.770;7.298;2024-01-15T13:06:07;9.65;;;4.75;;
43620;SDS011;29213;50.770;7.298;2024-01-15T13:08:32;10.57;;;4.20;;
43620;SDS011;29213;50.770;7.298;2024-01-15T13:10:58;9.85;;;4.82;;
43620;SDS011;29213;50.770;7.298;2024-01-15T13:13:23;7.75;;;4.00;;
43620;SDS011;29213;50.770;7.298;2024-01-15T13:15:49;10.43;;;4.50;;
43620;SDS011;29213;50.770;7.298;2024-01-15T13:18:14;9.10;;;4.00;;
43620;SDS011;29213;50.770;7.298;2024-01-15T13:20:39;8.93;;;4.10;;
43620;SDS011;29213;50.770;7.298;2024-01-15T13:23:05;10.98;;;3.92;;
43620;SDS011;29213;50.770;7.298;2024-01-15T13:25:31;9.35;;;4.50;;
43620;SDS011;29213;50.770;7.298;2024-01-15T13:27:57;10.73;;;4.80;;
43620;SDS011;29213;50.770;7.298;2024-01-15T13:30:22;9.27;;;3.83;;
43620;SDS011;29213;50.770;7.298;2024-01-15T13:32:48;7.75;;;4.30;;
43620;SDS011;29213;50.770;7.298;2024-01-15T13:35:13;11.18;;;4.60;;
43620;SDS011;29213;50.770;7.298;2024-01-15T13:37:39;10.70;;;4.22;;
43620;SDS011;29213;50.770;7.298;2024-01-15T13:40:06;9.00;;;4.00;;
43620;SDS011;29213;50.770;7.298;2024-01-15T13:42:34;9.07;;;4.45;;
43620;SDS011;29213;50.770;7.298;2024-01-15T13:45:03;8.30;;;3.90;;
43620;SDS011;29213;50.770;7.298;2024-01-15T13:47:31;9.20;;;4.03;;
43620;SDS011;29213;50.770;7.298;2024-01-15T13:49:56;6.97;;;3.95;;
43620;SDS011;29213;50.770;7.298;2024-01-15T13:52:22;7.00;;;3.55;;
43620;SDS011;29213;50.770;7.298;2024-01-15T13:54:47;10.75;;;3.55;;
43620;SDS011;29213;50.770;7.298;2024-01-15T13:57:13;7.93;;;3.78;;
43620;SDS011;29213;50.770;7.298;2024-01-15T13:59:38;8.98;;;3.63;;
43620;SDS011;29213;50.770;7.298;2024-01-15T14:02:03;6.30;;;3.05;;
43620;SDS011;29213;50.770;7.298;2024-01-15T14:04:30;7.82;;;3.42;;
43620;SDS011;29213;50.770;7.298;2024-01-15T14:06:55;9.88;;;3.35;;
43620;SDS011;29213;50.770;7.298;2024-01-15T14:09:21;5.90;;;2.90;;
43620;SDS011;29213;50.770;7.298;2024-01-15T14:11:47;8.07;;;3.33;;
43620;SDS011;29213;50.770;7.298;2024-01-15T14:14:13;7.20;;;3.58;;
43620;SDS011;29213;50.770;7.298;2024-01-15T14:16:39;7.72;;;3.20;;
43620;SDS011;29213;50.770;7.298;2024-01-15T14:19:04;7.63;;;3.38;;
43620;SDS011;29213;50.770;7.298;2024-01-15T14:21:31;10.48;;;3.13;;
43620;SDS011;29213;50.770;7.298;2024-01-15T14:23:57;7.85;;;2.92;;
43620;SDS011;29213;50.770;7.298;2024-01-15T14:26:22;5.50;;;2.63;;
43620;SDS011;29213;50.770;7.298;2024-01-15T14:28:47;5.65;;;2.70;;
43620;SDS011;29213;50.770;7.298;2024-01-15T14:31:13;6.25;;;2.95;;
43620;SDS011;29213;50.770;7.298;2024-01-15T14:33:39;6.50;;;2.92;;